METAR AND TAF INFORMATION
METAR FOR KTEX
ADDS - METARS form results

(2003 UTC 06 July 2020)
Data provider http://aviationweather.gov/metar/data/
 
METAR text: KTEX 061955Z AUTO 31009G20KT 270V330 10SM SCT120 25/M03 A3043 RMK AO2
Conditions at: KTEX (TELLURIDE REGION, CO, US) observed 1955 UTC 06 July 2020
Temperature: 25.0°C (77°F)
Dewpoint: -3.0°C (27°F) [RH = 15%]
Pressure (altimeter): 30.43 inches Hg (1030.6 mb)
Winds: from the NW (310 degrees) at 10 MPH (9 knots; 4.6 m/s)
gusting to 23 MPH (20 knots; 10.3 m/s)
Visibility: 10 or more miles (16+ km)
Ceiling: at least 12,000 feet AGL
Clouds: scattered clouds at 12000 feet AGL
Weather: automated observation with no human augmentation;
there may or may not be significant weather present at this time

METAR text: KTEX 061935Z AUTO 20007KT 10SM CLR 25/M05 A3043 RMK AO2
Conditions at: KTEX (TELLURIDE REGION, CO, US) observed 1935 UTC 06 July 2020
Temperature: 25.0°C (77°F)
Dewpoint: -5.0°C (23°F) [RH = 13%]
Pressure (altimeter): 30.43 inches Hg (1030.6 mb)
Winds: from the SSW (200 degrees) at 8 MPH (7 knots; 3.6 m/s)
Visibility: 10 or more miles (16+ km)
Ceiling: at least 12,000 feet AGL
Clouds: sky clear below 12,000 feet AGL
Weather: automated observation with no human augmentation;
there may or may not be significant weather present at this time

METAR text: KTEX 061915Z AUTO 23007KT 10SM BKN120 25/M06 A3043 RMK AO2
Conditions at: KTEX (TELLURIDE REGION, CO, US) observed 1915 UTC 06 July 2020
Temperature: 25.0°C (77°F)
Dewpoint: -6.0°C (21°F) [RH = 12%]
Pressure (altimeter): 30.43 inches Hg (1030.6 mb)
Winds: from the SW (230 degrees) at 8 MPH (7 knots; 3.6 m/s)
Visibility: 10 or more miles (16+ km)
Ceiling: 12000 feet AGL
Clouds: broken clouds at 12000 feet AGL
Weather: automated observation with no human augmentation;
there may or may not be significant weather present at this time

Forecast for: KTEX (TELLURIDE REGION, CO, US)
Text: KTEX 061736Z 0618/0718 20008KT P6SM VCSH SCT080 BKN120
Forecast period: 1800 to 2000 UTC 06 July 2020
Forecast type: FROM: standard forecast or significant change
Winds: from the SSW (200 degrees) at 9 MPH (8 knots; 4.1 m/s)
Visibility: 6 or more miles 10+ km)
Ceiling: 12000 feet AGL
Clouds: scattered clouds at 8000 feet AGL
broken clouds at 12000 feet AGL
Weather: VCSH  (showers in vicinity)
Text: FM062000 22008G16KT P6SM VCSH SCT080 BKN150
Forecast period: 2000 UTC 06 July 2020 to 0200 UTC 07 July 2020
Forecast type: FROM: standard forecast or significant change
Winds: from the SW (220 degrees) at 9 MPH (8 knots; 4.1 m/s)
gusting to 18 MPH (16 knots; 8.2 m/s)
Visibility: 6 or more miles 10+ km)
Ceiling: 15000 feet AGL
Clouds: scattered clouds at 8000 feet AGL
broken clouds at 15000 feet AGL
Weather: VCSH  (showers in vicinity)
Text: FM070200 16008KT P6SM FEW100 SCT150
Forecast period: 0200 to 0400 UTC 07 July 2020
Forecast type: FROM: standard forecast or significant change
Winds: from the SSE (160 degrees) at 9 MPH (8 knots; 4.1 m/s)
Visibility: 6 or more miles 10+ km)
Ceiling: at least 12,000 feet AGL
Clouds: few clouds at 10000 feet AGL
scattered clouds at 15000 feet AGL
Weather: no significant weather forecast for this period
Text: FM070400 13006KT P6SM FEW100
Forecast period: 0400 to 0800 UTC 07 July 2020
Forecast type: FROM: standard forecast or significant change
Winds: from the SE (130 degrees) at 7 MPH (6 knots; 3.1 m/s)
Visibility: 6 or more miles 10+ km)
Ceiling: at least 12,000 feet AGL
Clouds: few clouds at 10000 feet AGL
Weather: no significant weather forecast for this period
Text: FM070800 13004KT P6SM FEW100
Forecast period: 0800 to 1800 UTC 07 July 2020
Forecast type: FROM: standard forecast or significant change
Winds: from the SE (130 degrees) at 5 MPH (4 knots; 2.1 m/s)
Visibility: 6 or more miles 10+ km)
Ceiling: at least 12,000 feet AGL
Clouds: few clouds at 10000 feet AGL
Weather: no significant weather forecast for this period

 AIRPORT MAP

 RUNWAY INFORMATION
Runway 09 Runway length 6870 ft Runway width 100 ft
Runway elevation 9061 ft Runway displaced threshold 0 ft Runway heading 105
Runway 27 Runway length 6870 ft Runway width 100 ft
Runway elevation 9078 ft Runway displaced threshold 0 ft Runway heading 285

 AIRPORT FREQUENCIES
Type CNTR Name DENVER CNT Frequency 125.35 MHZ
Type FSS Name DENVER RDO Frequency 122.15 MHZ
Type UNIC Name CTAF/UNICO Frequency 123 MHZ

 AIRPORT NEAR NAVIGATION AIDS



Powered by Virtual Airlines Manager [v2.6.2]